sensor_id;sensor_type;location;lat;lon;timestamp;P1;durP1;ratioP1;P2;durP2;ratioP2
34212;SDS011;20477;51.390;8.102;2023-06-19T00:00:45;8.18;;;7.32;;
34212;SDS011;20477;51.390;8.102;2023-06-19T00:03:13;7.72;;;6.97;;
34212;SDS011;20477;51.390;8.102;2023-06-19T00:05:41;9.32;;;6.90;;
34212;SDS011;20477;51.390;8.102;2023-06-19T00:08:10;11.30;;;6.93;;
34212;SDS011;20477;51.390;8.102;2023-06-19T00:10:39;10.77;;;7.07;;
34212;SDS011;20477;51.390;8.102;2023-06-19T00:13:07;8.45;;;7.20;;
34212;SDS011;20477;51.390;8.102;2023-06-19T00:15:36;9.10;;;6.65;;
34212;SDS011;20477;51.390;8.102;2023-06-19T00:18:04;7.03;;;6.32;;
34212;SDS011;20477;51.390;8.102;2023-06-19T00:20:33;7.72;;;6.45;;
34212;SDS011;20477;51.390;8.102;2023-06-19T00:23:02;8.57;;;6.30;;
34212;SDS011;20477;51.390;8.102;2023-06-19T00:25:30;7.45;;;6.75;;
34212;SDS011;20477;51.390;8.102;2023-06-19T00:28:00;13.43;;;7.55;;
34212;SDS011;20477;51.390;8.102;2023-06-19T00:30:28;16.73;;;8.30;;
34212;SDS011;20477;51.390;8.102;2023-06-19T00:32:59;10.55;;;7.20;;
34212;SDS011;20477;51.390;8.102;2023-06-19T00:35:29;9.38;;;7.13;;
34212;SDS011;20477;51.390;8.102;2023-06-19T00:37:58;9.02;;;7.90;;
34212;SDS011;20477;51.390;8.102;2023-06-19T00:40:27;8.35;;;7.32;;
34212;SDS011;20477;51.390;8.102;2023-06-19T00:42:56;8.45;;;7.57;;
34212;SDS011;20477;51.390;8.102;2023-06-19T00:45:26;7.85;;;7.05;;
34212;SDS011;20477;51.390;8.102;2023-06-19T00:47:55;8.10;;;7.25;;
34212;SDS011;20477;51.390;8.102;2023-06-19T00:50:25;9.85;;;7.65;;
34212;SDS011;20477;51.390;8.102;2023-06-19T00:52:55;10.30;;;7.75;;
34212;SDS011;20477;51.390;8.102;2023-06-19T00:55:24;8.43;;;7.28;;
34212;SDS011;20477;51.390;8.102;2023-06-19T00:57:54;9.57;;;7.65;;
34212;SDS011;20477;51.390;8.102;2023-06-19T01:00:22;11.43;;;7.35;;
34212;SDS011;20477;51.390;8.102;2023-06-19T01:02:52;9.27;;;7.43;;
34212;SDS011;20477;51.390;8.102;2023-06-19T01:05:20;12.85;;;7.50;;
34212;SDS011;20477;51.390;8.102;2023-06-19T01:07:51;11.20;;;7.40;;
34212;SDS011;20477;51.390;8.102;2023-06-19T01:10:24;13.18;;;7.50;;
34212;SDS011;20477;51.390;8.102;2023-06-19T01:12:56;10.40;;;8.00;;
34212;SDS011;20477;51.390;8.102;2023-06-19T01:15:26;7.90;;;7.10;;
34212;SDS011;20477;51.390;8.102;2023-06-19T01:17:56;14.30;;;8.02;;
34212;SDS011;20477;51.390;8.102;2023-06-19T01:20:26;11.75;;;7.63;;
34212;SDS011;20477;51.390;8.102;2023-06-19T01:22:56;10.27;;;7.68;;
34212;SDS011;20477;51.390;8.102;2023-06-19T01:25:35;12.50;;;7.55;;
34212;SDS011;20477;51.390;8.102;2023-06-19T01:28:07;10.02;;;7.90;;
34212;SDS011;20477;51.390;8.102;2023-06-19T01:30:40;10.32;;;7.30;;
34212;SDS011;20477;51.390;8.102;2023-06-19T01:33:10;8.85;;;7.22;;
34212;SDS011;20477;51.390;8.102;2023-06-19T01:35:41;9.68;;;7.78;;
34212;SDS011;20477;51.390;8.102;2023-06-19T01:38:12;10.70;;;7.50;;
34212;SDS011;20477;51.390;8.102;2023-06-19T01:40:40;14.23;;;7.93;;
34212;SDS011;20477;51.390;8.102;2023-06-19T01:43:10;8.55;;;6.43;;
34212;SDS011;20477;51.390;8.102;2023-06-19T01:45:38;8.98;;;6.80;;
34212;SDS011;20477;51.390;8.102;2023-06-19T01:48:07;8.43;;;7.20;;
34212;SDS011;20477;51.390;8.102;2023-06-19T01:50:35;7.97;;;6.68;;
34212;SDS011;20477;51.390;8.102;2023-06-19T01:53:04;9.77;;;7.07;;
34212;SDS011;20477;51.390;8.102;2023-06-19T01:55:33;10.40;;;7.53;;
34212;SDS011;20477;51.390;8.102;2023-06-19T01:58:02;11.63;;;6.72;;
34212;SDS011;20477;51.390;8.102;2023-06-19T02:00:30;7.85;;;6.57;;
34212;SDS011;20477;51.390;8.102;2023-06-19T02:03:01;10.75;;;7.50;;
34212;SDS011;20477;51.390;8.102;2023-06-19T02:05:30;15.30;;;7.10;;
34212;SDS011;20477;51.390;8.102;2023-06-19T02:07:58;8.55;;;6.95;;
34212;SDS011;20477;51.390;8.102;2023-06-19T02:10:26;10.68;;;7.35;;
34212;SDS011;20477;51.390;8.102;2023-06-19T02:12:56;14.02;;;7.25;;
34212;SDS011;20477;51.390;8.102;2023-06-19T02:15:24;13.93;;;6.95;;
34212;SDS011;20477;51.390;8.102;2023-06-19T02:17:53;12.77;;;8.00;;
34212;SDS011;20477;51.390;8.102;2023-06-19T02:20:23;11.65;;;7.22;;
34212;SDS011;20477;51.390;8.102;2023-06-19T02:22:52;7.70;;;6.90;;
34212;SDS011;20477;51.390;8.102;2023-06-19T02:25:20;8.52;;;7.20;;
34212;SDS011;20477;51.390;8.102;2023-06-19T02:27:49;8.30;;;7.30;;
34212;SDS011;20477;51.390;8.102;2023-06-19T02:30:18;8.20;;;7.38;;
34212;SDS011;20477;51.390;8.102;2023-06-19T02:32:47;8.07;;;7.07;;
34212;SDS011;20477;51.390;8.102;2023-06-19T02:35:16;9.40;;;7.45;;
34212;SDS011;20477;51.390;8.102;2023-06-19T02:37:44;7.70;;;6.00;;
34212;SDS011;20477;51.390;8.102;2023-06-19T02:40:13;7.38;;;6.55;;
34212;SDS011;20477;51.390;8.102;2023-06-19T02:42:41;7.97;;;6.78;;
34212;SDS011;20477;51.390;8.102;2023-06-19T02:45:10;8.95;;;6.30;;
34212;SDS011;20477;51.390;8.102;2023-06-19T02:47:39;12.23;;;6.78;;
34212;SDS011;20477;51.390;8.102;2023-06-19T02:50:08;9.32;;;6.55;;
34212;SDS011;20477;51.390;8.102;2023-06-19T02:52:37;8.75;;;6.28;;
34212;SDS011;20477;51.390;8.102;2023-06-19T02:55:05;7.70;;;6.90;;
34212;SDS011;20477;51.390;8.102;2023-06-19T02:57:34;10.70;;;6.72;;
34212;SDS011;20477;51.390;8.102;2023-06-19T03:00:02;7.53;;;6.72;;
34212;SDS011;20477;51.390;8.102;2023-06-19T03:02:34;8.18;;;6.80;;
34212;SDS011;20477;51.390;8.102;2023-06-19T03:05:04;9.65;;;7.22;;
34212;SDS011;20477;51.390;8.102;2023-06-19T03:07:33;8.30;;;7.00;;
34212;SDS011;20477;51.390;8.102;2023-06-19T03:10:01;10.40;;;6.82;;
34212;SDS011;20477;51.390;8.102;2023-06-19T03:12:30;7.80;;;6.78;;
34212;SDS011;20477;51.390;8.102;2023-06-19T03:14:58;9.00;;;7.00;;
34212;SDS011;20477;51.390;8.102;2023-06-19T03:17:26;7.88;;;6.72;;
34212;SDS011;20477;51.390;8.102;2023-06-19T03:19:55;10.98;;;6.85;;
34212;SDS011;20477;51.390;8.102;2023-06-19T03:22:25;7.32;;;6.60;;
34212;SDS011;20477;51.390;8.102;2023-06-19T03:24:53;8.00;;;6.97;;
34212;SDS011;20477;51.390;8.102;2023-06-19T03:27:21;8.35;;;6.40;;
34212;SDS011;20477;51.390;8.102;2023-06-19T03:29:51;9.07;;;7.20;;
34212;SDS011;20477;51.390;8.102;2023-06-19T03:32:19;7.57;;;6.10;;
34212;SDS011;20477;51.390;8.102;2023-06-19T03:34:47;8.48;;;6.13;;
34212;SDS011;20477;51.390;8.102;2023-06-19T03:37:16;11.75;;;5.97;;
34212;SDS011;20477;51.390;8.102;2023-06-19T03:39:45;7.88;;;6.03;;
34212;SDS011;20477;51.390;8.102;2023-06-19T03:42:13;6.50;;;5.75;;
34212;SDS011;20477;51.390;8.102;2023-06-19T03:44:42;7.63;;;6.28;;
34212;SDS011;20477;51.390;8.102;2023-06-19T03:47:10;11.57;;;6.28;;
34212;SDS011;20477;51.390;8.102;2023-06-19T03:49:38;7.78;;;6.15;;
34212;SDS011;20477;51.390;8.102;2023-06-19T03:52:07;7.55;;;5.47;;
34212;SDS011;20477;51.390;8.102;2023-06-19T03:54:35;8.55;;;5.85;;
34212;SDS011;20477;51.390;8.102;2023-06-19T03:57:05;8.32;;;6.03;;
34212;SDS011;20477;51.390;8.102;2023-06-19T03:59:34;7.53;;;5.70;;
34212;SDS011;20477;51.390;8.102;2023-06-19T04:02:03;11.63;;;6.93;;
34212;SDS011;20477;51.390;8.102;2023-06-19T04:04:32;8.52;;;6.03;;
34212;SDS011;20477;51.390;8.102;2023-06-19T04:07:00;11.27;;;6.10;;
34212;SDS011;20477;51.390;8.102;2023-06-19T04:09:29;8.68;;;6.13;;
34212;SDS011;20477;51.390;8.102;2023-06-19T04:11:57;7.63;;;6.05;;
34212;SDS011;20477;51.390;8.102;2023-06-19T04:14:27;6.28;;;5.22;;
34212;SDS011;20477;51.390;8.102;2023-06-19T04:16:55;7.10;;;5.75;;
34212;SDS011;20477;51.390;8.102;2023-06-19T04:19:23;8.52;;;6.22;;
34212;SDS011;20477;51.390;8.102;2023-06-19T04:21:51;7.47;;;5.38;;
34212;SDS011;20477;51.390;8.102;2023-06-19T04:24:21;10.95;;;5.47;;
34212;SDS011;20477;51.390;8.102;2023-06-19T04:26:49;8.05;;;6.03;;
34212;SDS011;20477;51.390;8.102;2023-06-19T04:29:17;13.35;;;6.10;;
34212;SDS011;20477;51.390;8.102;2023-06-19T04:31:47;6.88;;;5.70;;
34212;SDS011;20477;51.390;8.102;2023-06-19T04:34:15;7.22;;;5.60;;
34212;SDS011;20477;51.390;8.102;2023-06-19T04:36:47;8.68;;;6.72;;
34212;SDS011;20477;51.390;8.102;2023-06-19T04:39:15;8.80;;;5.90;;
34212;SDS011;20477;51.390;8.102;2023-06-19T04:41:44;6.55;;;5.47;;
34212;SDS011;20477;51.390;8.102;2023-06-19T04:44:12;6.22;;;5.63;;
34212;SDS011;20477;51.390;8.102;2023-06-19T04:46:40;6.70;;;5.82;;
34212;SDS011;20477;51.390;8.102;2023-06-19T04:49:12;8.23;;;5.93;;
34212;SDS011;20477;51.390;8.102;2023-06-19T04:51:40;6.68;;;5.35;;
34212;SDS011;20477;51.390;8.102;2023-06-19T04:54:08;7.55;;;5.38;;
34212;SDS011;20477;51.390;8.102;2023-06-19T04:56:36;9.38;;;7.28;;
34212;SDS011;20477;51.390;8.102;2023-06-19T04:59:05;9.15;;;6.43;;
34212;SDS011;20477;51.390;8.102;2023-06-19T05:01:33;6.30;;;5.53;;
34212;SDS011;20477;51.390;8.102;2023-06-19T05:04:02;7.97;;;6.18;;
34212;SDS011;20477;51.390;8.102;2023-06-19T05:06:32;9.77;;;5.68;;
34212;SDS011;20477;51.390;8.102;2023-06-19T05:09:00;10.40;;;5.82;;
34212;SDS011;20477;51.390;8.102;2023-06-19T05:11:28;6.97;;;5.30;;
34212;SDS011;20477;51.390;8.102;2023-06-19T05:13:57;7.45;;;4.88;;
34212;SDS011;20477;51.390;8.102;2023-06-19T05:16:25;10.10;;;5.45;;
34212;SDS011;20477;51.390;8.102;2023-06-19T05:18:53;7.10;;;5.00;;
34212;SDS011;20477;51.390;8.102;2023-06-19T05:21:22;8.30;;;5.28;;
34212;SDS011;20477;51.390;8.102;2023-06-19T05:23:51;9.70;;;5.60;;
34212;SDS011;20477;51.390;8.102;2023-06-19T05:26:20;6.70;;;4.90;;
34212;SDS011;20477;51.390;8.102;2023-06-19T05:28:48;9.18;;;5.80;;
34212;SDS011;20477;51.390;8.102;2023-06-19T05:31:17;7.88;;;5.80;;
34212;SDS011;20477;51.390;8.102;2023-06-19T05:33:45;12.13;;;6.10;;
34212;SDS011;20477;51.390;8.102;2023-06-19T05:36:14;7.70;;;5.68;;
34212;SDS011;20477;51.390;8.102;2023-06-19T05:38:42;8.60;;;5.70;;
34212;SDS011;20477;51.390;8.102;2023-06-19T05:41:13;6.30;;;5.70;;
34212;SDS011;20477;51.390;8.102;2023-06-19T05:43:42;9.43;;;5.50;;
34212;SDS011;20477;51.390;8.102;2023-06-19T05:46:10;6.78;;;5.85;;
34212;SDS011;20477;51.390;8.102;2023-06-19T05:48:39;14.68;;;5.50;;
34212;SDS011;20477;51.390;8.102;2023-06-19T05:51:07;5.65;;;5.10;;
34212;SDS011;20477;51.390;8.102;2023-06-19T05:53:36;5.43;;;4.82;;
34212;SDS011;20477;51.390;8.102;2023-06-19T05:56:05;8.18;;;5.55;;
34212;SDS011;20477;51.390;8.102;2023-06-19T05:58:35;8.77;;;4.97;;
34212;SDS011;20477;51.390;8.102;2023-06-19T06:01:03;7.50;;;5.40;;
34212;SDS011;20477;51.390;8.102;2023-06-19T06:03:31;5.05;;;4.55;;
34212;SDS011;20477;51.390;8.102;2023-06-19T06:06:00;8.98;;;5.10;;
34212;SDS011;20477;51.390;8.102;2023-06-19T06:08:30;7.03;;;5.03;;
34212;SDS011;20477;51.390;8.102;2023-06-19T06:10:58;9.68;;;6.13;;
34212;SDS011;20477;51.390;8.102;2023-06-19T06:13:26;20.10;;;5.97;;
34212;SDS011;20477;51.390;8.102;2023-06-19T06:15:56;6.32;;;5.68;;
34212;SDS011;20477;51.390;8.102;2023-06-19T06:18:25;8.10;;;5.80;;
34212;SDS011;20477;51.390;8.102;2023-06-19T06:20:54;7.75;;;6.38;;
34212;SDS011;20477;51.390;8.102;2023-06-19T06:23:22;9.43;;;6.10;;
34212;SDS011;20477;51.390;8.102;2023-06-19T06:25:50;6.57;;;5.63;;
34212;SDS011;20477;51.390;8.102;2023-06-19T06:28:18;7.72;;;5.85;;
34212;SDS011;20477;51.390;8.102;2023-06-19T06:30:47;7.35;;;5.70;;
34212;SDS011;20477;51.390;8.102;2023-06-19T06:33:16;12.27;;;6.15;;
34212;SDS011;20477;51.390;8.102;2023-06-19T06:35:45;6.57;;;5.97;;
34212;SDS011;20477;51.390;8.102;2023-06-19T06:38:13;7.95;;;5.88;;
34212;SDS011;20477;51.390;8.102;2023-06-19T06:40:41;13.02;;;4.55;;
34212;SDS011;20477;51.390;8.102;2023-06-19T06:43:10;10.38;;;5.95;;
34212;SDS011;20477;51.390;8.102;2023-06-19T06:45:38;9.07;;;5.53;;
34212;SDS011;20477;51.390;8.102;2023-06-19T06:48:09;5.70;;;5.10;;
34212;SDS011;20477;51.390;8.102;2023-06-19T06:50:39;7.25;;;5.40;;
34212;SDS011;20477;51.390;8.102;2023-06-19T06:53:07;8.32;;;5.32;;
34212;SDS011;20477;51.390;8.102;2023-06-19T06:55:36;8.13;;;4.95;;
34212;SDS011;20477;51.390;8.102;2023-06-19T06:58:04;6.63;;;4.30;;
34212;SDS011;20477;51.390;8.102;2023-06-19T07:00:32;9.05;;;4.80;;
34212;SDS011;20477;51.390;8.102;2023-06-19T07:03:00;5.95;;;4.28;;
34212;SDS011;20477;51.390;8.102;2023-06-19T07:05:29;7.50;;;4.53;;
34212;SDS011;20477;51.390;8.102;2023-06-19T07:07:59;7.32;;;4.38;;
34212;SDS011;20477;51.390;8.102;2023-06-19T07:10:27;6.35;;;4.10;;
34212;SDS011;20477;51.390;8.102;2023-06-19T07:12:56;5.07;;;3.80;;
34212;SDS011;20477;51.390;8.102;2023-06-19T07:15:24;6.22;;;4.22;;
34212;SDS011;20477;51.390;8.102;2023-06-19T07:17:52;4.80;;;3.80;;
34212;SDS011;20477;51.390;8.102;2023-06-19T07:20:20;3.92;;;3.53;;
34212;SDS011;20477;51.390;8.102;2023-06-19T07:22:50;7.78;;;3.65;;
34212;SDS011;20477;51.390;8.102;2023-06-19T07:25:20;5.03;;;3.80;;
34212;SDS011;20477;51.390;8.102;2023-06-19T07:27:53;3.78;;;3.35;;
34212;SDS011;20477;51.390;8.102;2023-06-19T07:30:21;5.47;;;3.72;;
34212;SDS011;20477;51.390;8.102;2023-06-19T07:32:51;4.25;;;3.85;;
34212;SDS011;20477;51.390;8.102;2023-06-19T07:35:19;4.22;;;3.50;;
34212;SDS011;20477;51.390;8.102;2023-06-19T07:37:48;8.43;;;3.50;;
34212;SDS011;20477;51.390;8.102;2023-06-19T07:40:16;3.42;;;3.13;;
34212;SDS011;20477;51.390;8.102;2023-06-19T07:42:46;4.75;;;3.60;;
34212;SDS011;20477;51.390;8.102;2023-06-19T07:45:14;3.45;;;3.15;;
34212;SDS011;20477;51.390;8.102;2023-06-19T07:47:42;3.75;;;3.17;;
34212;SDS011;20477;51.390;8.102;2023-06-19T07:50:11;6.82;;;3.30;;
34212;SDS011;20477;51.390;8.102;2023-06-19T07:52:39;3.65;;;3.28;;
34212;SDS011;20477;51.390;8.102;2023-06-19T07:55:08;4.15;;;3.03;;
34212;SDS011;20477;51.390;8.102;2023-06-19T07:57:38;4.43;;;2.90;;
34212;SDS011;20477;51.390;8.102;2023-06-19T08:00:08;5.45;;;3.00;;
34212;SDS011;20477;51.390;8.102;2023-06-19T08:05:08;8.25;;;3.20;;
34212;SDS011;20477;51.390;8.102;2023-06-19T08:07:37;3.78;;;3.15;;
34212;SDS011;20477;51.390;8.102;2023-06-19T08:10:06;3.03;;;2.58;;
34212;SDS011;20477;51.390;8.102;2023-06-19T08:12:40;5.50;;;2.60;;
34212;SDS011;20477;51.390;8.102;2023-06-19T08:15:13;7.32;;;2.88;;
34212;SDS011;20477;51.390;8.102;2023-06-19T08:17:41;3.47;;;2.50;;
34212;SDS011;20477;51.390;8.102;2023-06-19T08:20:10;4.50;;;2.92;;
34212;SDS011;20477;51.390;8.102;2023-06-19T08:22:40;3.90;;;2.33;;
34212;SDS011;20477;51.390;8.102;2023-06-19T08:25:09;7.20;;;2.90;;
34212;SDS011;20477;51.390;8.102;2023-06-19T08:27:37;2.88;;;2.60;;
34212;SDS011;20477;51.390;8.102;2023-06-19T08:30:06;8.25;;;2.95;;
34212;SDS011;20477;51.390;8.102;2023-06-19T08:32:36;7.20;;;2.75;;
34212;SDS011;20477;51.390;8.102;2023-06-19T08:35:05;4.45;;;2.70;;
34212;SDS011;20477;51.390;8.102;2023-06-19T08:37:34;4.45;;;2.63;;
34212;SDS011;20477;51.390;8.102;2023-06-19T08:40:02;4.70;;;2.70;;
34212;SDS011;20477;51.390;8.102;2023-06-19T08:42:35;3.72;;;2.08;;
34212;SDS011;20477;51.390;8.102;2023-06-19T08:45:06;6.47;;;2.53;;
34212;SDS011;20477;51.390;8.102;2023-06-19T08:47:37;3.35;;;2.55;;
34212;SDS011;20477;51.390;8.102;2023-06-19T08:50:09;3.42;;;2.10;;
34212;SDS011;20477;51.390;8.102;2023-06-19T08:52:37;4.65;;;2.47;;
34212;SDS011;20477;51.390;8.102;2023-06-19T08:55:06;2.22;;;2.03;;
34212;SDS011;20477;51.390;8.102;2023-06-19T08:57:35;2.92;;;2.45;;
34212;SDS011;20477;51.390;8.102;2023-06-19T09:00:04;3.25;;;2.50;;
34212;SDS011;20477;51.390;8.102;2023-06-19T09:02:39;5.63;;;2.80;;
34212;SDS011;20477;51.390;8.102;2023-06-19T09:05:13;3.05;;;2.10;;
34212;SDS011;20477;51.390;8.102;2023-06-19T09:07:43;2.97;;;2.10;;
34212;SDS011;20477;51.390;8.102;2023-06-19T09:10:13;4.15;;;2.47;;
34212;SDS011;20477;51.390;8.102;2023-06-19T09:12:43;2.55;;;2.10;;
34212;SDS011;20477;51.390;8.102;2023-06-19T09:15:12;6.93;;;2.78;;
34212;SDS011;20477;51.390;8.102;2023-06-19T09:17:42;8.93;;;2.38;;
34212;SDS011;20477;51.390;8.102;2023-06-19T09:20:11;2.83;;;2.20;;
34212;SDS011;20477;51.390;8.102;2023-06-19T09:22:39;2.40;;;2.15;;
34212;SDS011;20477;51.390;8.102;2023-06-19T09:25:08;3.63;;;1.98;;
34212;SDS011;20477;51.390;8.102;2023-06-19T09:27:37;4.50;;;2.30;;
34212;SDS011;20477;51.390;8.102;2023-06-19T09:30:06;7.05;;;2.13;;
34212;SDS011;20477;51.390;8.102;2023-06-19T09:32:34;6.03;;;2.28;;
34212;SDS011;20477;51.390;8.102;2023-06-19T09:35:04;4.22;;;2.35;;
34212;SDS011;20477;51.390;8.102;2023-06-19T09:37:33;6.72;;;2.20;;
34212;SDS011;20477;51.390;8.102;2023-06-19T09:40:02;3.92;;;2.40;;
34212;SDS011;20477;51.390;8.102;2023-06-19T09:42:39;2.10;;;1.90;;
34212;SDS011;20477;51.390;8.102;2023-06-19T09:45:09;3.75;;;2.08;;
34212;SDS011;20477;51.390;8.102;2023-06-19T09:47:39;5.38;;;2.30;;
34212;SDS011;20477;51.390;8.102;2023-06-19T09:50:16;3.35;;;2.30;;
34212;SDS011;20477;51.390;8.102;2023-06-19T09:52:45;2.38;;;2.10;;
34212;SDS011;20477;51.390;8.102;2023-06-19T09:55:13;3.40;;;1.67;;
34212;SDS011;20477;51.390;8.102;2023-06-19T09:57:42;7.15;;;2.05;;
34212;SDS011;20477;51.390;8.102;2023-06-19T10:00:11;5.18;;;2.53;;
34212;SDS011;20477;51.390;8.102;2023-06-19T10:02:44;6.47;;;2.10;;
34212;SDS011;20477;51.390;8.102;2023-06-19T10:05:14;3.33;;;2.10;;
34212;SDS011;20477;51.390;8.102;2023-06-19T10:07:46;3.17;;;2.30;;
34212;SDS011;20477;51.390;8.102;2023-06-19T10:10:22;6.25;;;2.28;;
34212;SDS011;20477;51.390;8.102;2023-06-19T10:12:53;3.28;;;2.42;;
34212;SDS011;20477;51.390;8.102;2023-06-19T10:15:23;4.53;;;2.33;;
34212;SDS011;20477;51.390;8.102;2023-06-19T10:17:53;3.97;;;2.50;;
34212;SDS011;20477;51.390;8.102;2023-06-19T10:20:31;4.28;;;2.33;;
34212;SDS011;20477;51.390;8.102;2023-06-19T10:23:03;2.75;;;2.10;;
34212;SDS011;20477;51.390;8.102;2023-06-19T10:25:34;8.15;;;2.20;;
34212;SDS011;20477;51.390;8.102;2023-06-19T10:28:04;3.72;;;2.13;;
34212;SDS011;20477;51.390;8.102;2023-06-19T10:30:33;3.30;;;1.88;;
34212;SDS011;20477;51.390;8.102;2023-06-19T10:33:01;4.65;;;1.92;;
34212;SDS011;20477;51.390;8.102;2023-06-19T10:35:37;3.88;;;2.50;;
34212;SDS011;20477;51.390;8.102;2023-06-19T10:38:07;3.00;;;2.35;;
34212;SDS011;20477;51.390;8.102;2023-06-19T10:40:37;3.80;;;2.13;;
34212;SDS011;20477;51.390;8.102;2023-06-19T10:43:05;3.17;;;2.40;;
34212;SDS011;20477;51.390;8.102;2023-06-19T10:45:33;4.63;;;2.20;;
34212;SDS011;20477;51.390;8.102;2023-06-19T10:48:04;3.33;;;1.70;;
34212;SDS011;20477;51.390;8.102;2023-06-19T10:50:36;2.30;;;1.90;;
34212;SDS011;20477;51.390;8.102;2023-06-19T10:53:09;3.55;;;1.92;;
34212;SDS011;20477;51.390;8.102;2023-06-19T10:55:37;2.90;;;1.88;;
34212;SDS011;20477;51.390;8.102;2023-06-19T10:58:05;4.15;;;1.50;;
34212;SDS011;20477;51.390;8.102;2023-06-19T11:00:33;6.95;;;1.63;;
34212;SDS011;20477;51.390;8.102;2023-06-19T11:03:02;1.80;;;1.70;;
34212;SDS011;20477;51.390;8.102;2023-06-19T11:05:32;2.90;;;1.70;;
34212;SDS011;20477;51.390;8.102;2023-06-19T11:08:00;5.10;;;1.92;;
34212;SDS011;20477;51.390;8.102;2023-06-19T11:10:30;1.95;;;1.50;;
34212;SDS011;20477;51.390;8.102;2023-06-19T11:12:58;3.58;;;1.83;;
34212;SDS011;20477;51.390;8.102;2023-06-19T11:15:30;2.10;;;1.45;;
34212;SDS011;20477;51.390;8.102;2023-06-19T11:17:58;3.35;;;1.80;;
34212;SDS011;20477;51.390;8.102;2023-06-19T11:20:28;3.03;;;1.60;;
34212;SDS011;20477;51.390;8.102;2023-06-19T11:22:57;2.00;;;1.70;;
34212;SDS011;20477;51.390;8.102;2023-06-19T11:25:35;2.80;;;1.75;;
34212;SDS011;20477;51.390;8.102;2023-06-19T11:28:04;2.60;;;1.90;;
34212;SDS011;20477;51.390;8.102;2023-06-19T11:30:34;3.63;;;1.88;;
34212;SDS011;20477;51.390;8.102;2023-06-19T11:33:02;7.65;;;2.00;;
34212;SDS011;20477;51.390;8.102;2023-06-19T11:35:34;2.10;;;1.88;;
34212;SDS011;20477;51.390;8.102;2023-06-19T11:38:03;2.47;;;1.80;;
34212;SDS011;20477;51.390;8.102;2023-06-19T11:40:40;3.42;;;1.50;;
34212;SDS011;20477;51.390;8.102;2023-06-19T11:43:08;1.63;;;1.50;;
34212;SDS011;20477;51.390;8.102;2023-06-19T11:45:47;10.30;;;2.05;;
34212;SDS011;20477;51.390;8.102;2023-06-19T11:48:21;3.25;;;1.40;;
34212;SDS011;20477;51.390;8.102;2023-06-19T11:50:49;2.65;;;1.90;;
34212;SDS011;20477;51.390;8.102;2023-06-19T11:53:19;3.83;;;1.60;;
34212;SDS011;20477;51.390;8.102;2023-06-19T11:55:51;4.55;;;1.65;;
34212;SDS011;20477;51.390;8.102;2023-06-19T11:58:19;2.30;;;1.75;;
34212;SDS011;20477;51.390;8.102;2023-06-19T12:00:48;4.00;;;2.15;;
34212;SDS011;20477;51.390;8.102;2023-06-19T12:03:16;2.35;;;1.63;;
34212;SDS011;20477;51.390;8.102;2023-06-19T12:05:45;3.72;;;2.00;;
34212;SDS011;20477;51.390;8.102;2023-06-19T12:08:13;2.38;;;1.80;;
34212;SDS011;20477;51.390;8.102;2023-06-19T12:10:42;2.30;;;1.85;;
34212;SDS011;20477;51.390;8.102;2023-06-19T12:13:11;3.47;;;1.85;;
34212;SDS011;20477;51.390;8.102;2023-06-19T12:15:40;2.17;;;1.70;;
34212;SDS011;20477;51.390;8.102;2023-06-19T12:18:10;4.35;;;1.80;;
34212;SDS011;20477;51.390;8.102;2023-06-19T12:20:40;2.47;;;1.92;;
34212;SDS011;20477;51.390;8.102;2023-06-19T12:23:08;4.13;;;2.35;;
34212;SDS011;20477;51.390;8.102;2023-06-19T12:25:36;4.60;;;1.73;;
34212;SDS011;20477;51.390;8.102;2023-06-19T12:28:05;2.80;;;1.85;;
34212;SDS011;20477;51.390;8.102;2023-06-19T12:30:36;2.80;;;2.10;;
34212;SDS011;20477;51.390;8.102;2023-06-19T12:33:04;5.25;;;2.03;;
34212;SDS011;20477;51.390;8.102;2023-06-19T12:35:32;3.05;;;2.00;;
34212;SDS011;20477;51.390;8.102;2023-06-19T12:38:01;5.72;;;2.60;;
34212;SDS011;20477;51.390;8.102;2023-06-19T12:40:32;3.90;;;2.05;;
34212;SDS011;20477;51.390;8.102;2023-06-19T12:43:01;5.28;;;2.10;;
34212;SDS011;20477;51.390;8.102;2023-06-19T12:45:29;4.15;;;2.10;;
34212;SDS011;20477;51.390;8.102;2023-06-19T12:47:59;2.20;;;1.58;;
34212;SDS011;20477;51.390;8.102;2023-06-19T12:50:27;8.75;;;1.92;;
34212;SDS011;20477;51.390;8.102;2023-06-19T12:52:56;9.95;;;2.30;;
34212;SDS011;20477;51.390;8.102;2023-06-19T12:55:24;6.30;;;2.28;;
34212;SDS011;20477;51.390;8.102;2023-06-19T12:57:52;4.32;;;2.60;;
34212;SDS011;20477;51.390;8.102;2023-06-19T13:00:21;8.40;;;2.45;;
34212;SDS011;20477;51.390;8.102;2023-06-19T13:02:50;4.97;;;2.65;;
34212;SDS011;20477;51.390;8.102;2023-06-19T13:05:19;6.13;;;2.58;;
34212;SDS011;20477;51.390;8.102;2023-06-19T13:07:48;5.90;;;2.05;;
34212;SDS011;20477;51.390;8.102;2023-06-19T13:10:16;4.93;;;2.17;;
34212;SDS011;20477;51.390;8.102;2023-06-19T13:12:44;2.63;;;1.98;;
34212;SDS011;20477;51.390;8.102;2023-06-19T13:15:12;3.60;;;2.53;;
34212;SDS011;20477;51.390;8.102;2023-06-19T13:17:41;4.18;;;2.88;;
34212;SDS011;20477;51.390;8.102;2023-06-19T13:20:09;8.35;;;2.85;;
34212;SDS011;20477;51.390;8.102;2023-06-19T13:22:39;3.03;;;2.40;;
34212;SDS011;20477;51.390;8.102;2023-06-19T13:25:07;4.82;;;2.78;;
34212;SDS011;20477;51.390;8.102;2023-06-19T13:27:36;3.65;;;2.42;;
34212;SDS011;20477;51.390;8.102;2023-06-19T13:30:05;4.38;;;2.45;;
34212;SDS011;20477;51.390;8.102;2023-06-19T13:32:34;3.45;;;2.47;;
34212;SDS011;20477;51.390;8.102;2023-06-19T13:35:04;5.45;;;2.67;;
34212;SDS011;20477;51.390;8.102;2023-06-19T13:37:34;6.63;;;2.80;;
34212;SDS011;20477;51.390;8.102;2023-06-19T13:40:05;6.13;;;2.80;;
34212;SDS011;20477;51.390;8.102;2023-06-19T13:42:34;3.13;;;2.78;;
34212;SDS011;20477;51.390;8.102;2023-06-19T13:45:05;4.75;;;2.60;;
34212;SDS011;20477;51.390;8.102;2023-06-19T13:47:35;14.25;;;3.63;;
34212;SDS011;20477;51.390;8.102;2023-06-19T13:50:04;4.55;;;2.95;;
34212;SDS011;20477;51.390;8.102;2023-06-19T13:52:32;7.80;;;3.03;;
34212;SDS011;20477;51.390;8.102;2023-06-19T13:55:01;4.53;;;2.92;;
34212;SDS011;20477;51.390;8.102;2023-06-19T13:57:32;7.10;;;3.38;;
34212;SDS011;20477;51.390;8.102;2023-06-19T14:00:02;5.07;;;3.20;;
34212;SDS011;20477;51.390;8.102;2023-06-19T14:02:34;3.75;;;2.97;;
34212;SDS011;20477;51.390;8.102;2023-06-19T14:05:02;5.95;;;3.35;;
34212;SDS011;20477;51.390;8.102;2023-06-19T14:07:32;4.15;;;3.20;;
34212;SDS011;20477;51.390;8.102;2023-06-19T14:10:02;10.40;;;3.75;;
34212;SDS011;20477;51.390;8.102;2023-06-19T14:12:32;8.73;;;4.18;;
34212;SDS011;20477;51.390;8.102;2023-06-19T14:15:01;4.22;;;2.92;;
34212;SDS011;20477;51.390;8.102;2023-06-19T14:17:29;11.77;;;4.45;;
34212;SDS011;20477;51.390;8.102;2023-06-19T14:19:57;7.65;;;2.80;;
34212;SDS011;20477;51.390;8.102;2023-06-19T14:22:26;6.50;;;2.88;;
34212;SDS011;20477;51.390;8.102;2023-06-19T14:24:54;6.30;;;3.20;;
34212;SDS011;20477;51.390;8.102;2023-06-19T14:27:26;4.03;;;3.10;;
34212;SDS011;20477;51.390;8.102;2023-06-19T14:29:55;5.55;;;3.40;;
34212;SDS011;20477;51.390;8.102;2023-06-19T14:32:24;5.68;;;3.53;;
34212;SDS011;20477;51.390;8.102;2023-06-19T14:34:52;4.72;;;3.05;;
34212;SDS011;20477;51.390;8.102;2023-06-19T14:37:20;4.03;;;3.20;;
34212;SDS011;20477;51.390;8.102;2023-06-19T14:39:49;4.65;;;3.65;;
34212;SDS011;20477;51.390;8.102;2023-06-19T14:42:17;4.50;;;3.70;;
34212;SDS011;20477;51.390;8.102;2023-06-19T14:44:46;8.20;;;3.50;;
34212;SDS011;20477;51.390;8.102;2023-06-19T14:47:15;7.88;;;3.72;;
34212;SDS011;20477;51.390;8.102;2023-06-19T14:49:46;5.78;;;4.10;;
34212;SDS011;20477;51.390;8.102;2023-06-19T14:52:15;5.68;;;3.45;;
34212;SDS011;20477;51.390;8.102;2023-06-19T14:54:43;8.27;;;3.50;;
34212;SDS011;20477;51.390;8.102;2023-06-19T14:57:11;3.53;;;3.20;;
34212;SDS011;20477;51.390;8.102;2023-06-19T14:59:39;5.93;;;3.67;;